Sam Simon — PA6615 — position and weather

sailwx.info

Track history (hours):
 
Tides and Currents Weather Stations Pressure Air Temp Water Temp Dewpoint Dewpoint Depression Visibility Wind Speed Wind Dir Waves Ship Positions

Sam Simon

Last reported at 2017-Sep-13 02:54 UTC. Time now 2017-Sep-23 00:36 UTC.
Position N 34°46' W 007°35'.
Warning: this ship's position is 9 days out of date.

; draft 4.6 m.

Type: Ship. MMSI: 244810415.

Date/timePositionNaut miles runAvg speedWind from/ knotsBaromVisibWave heightAir tempDewpointWater temp
2017-Sep-13 02:54N 34°46' W 007°35'511.2
2017-Sep-13 02:26N 34°49' W 007°31'1911.1
2017-Sep-13 00:43N 35°03' W 007°14'311.0
2017-Sep-13 00:29N 35°04' W 007°12'611.4
2017-Sep-12 23:58N 35°07' W 007°05'9311.1
2017-Sep-12 15:38N 35°59' W 005°32'3 9.8
2017-Sep-12 15:20N 36°00' W 005°28'3 9.1
2017-Sep-12 15:01N 36°01' W 005°25'5 9.2
2017-Sep-12 14:30N 36°06' W 005°23'3 0.6
2017-Sep-12 09:27N 36°09' W 005°22'0 0.0
2017-Sep-12 05:38N 36°09' W 005°22'0 0.0
2017-Sep-12 05:29N 36°09' W 005°22'0 0.0
2017-Sep-12 05:01N 36°09' W 005°22'0 0.0
2017-Sep-12 04:30N 36°09' W 005°22'0 0.0
2017-Sep-12 03:58N 36°09' W 005°22'0 0.0
2017-Sep-12 03:22N 36°09' W 005°22'0 0.0
2017-Sep-12 02:06N 36°09' W 005°22'0 0.0
2017-Sep-12 01:58N 36°09' W 005°22'0 0.0
2017-Sep-12 01:29N 36°09' W 005°22'3 3.4
2017-Sep-12 00:41N 36°06' W 005°22'1 4.9
2017-Sep-12 00:29N 36°05' W 005°21'2 4.6
2017-Sep-12 00:01N 36°06' W 005°18'4 7.7
2017-Sep-11 23:30N 36°08' W 005°14'612.3
2017-Sep-11 23:01N 36°10' W 005°07'812.1
2017-Sep-11 22:20N 36°14' W 004°58'21210.3
2017-Sep-11 01:50N 37°06' W 000°42'18510.8
2017-Sep-10 08:40N 38°38' E 002°41'210.5
2017-Sep-10 08:28N 38°39' E 002°43'510.8
2017-Sep-10 08:00N 38°41' E 002°49'510.7
2017-Sep-10 07:30N 38°44' E 002°55'510.6
2017-Sep-10 07:00N 38°46' E 003°01'610.7
2017-Sep-10 06:29N 38°49' E 003°07'510.6
2017-Sep-10 06:00N 38°51' E 003°13'510.2
2017-Sep-10 05:30N 38°52' E 003°19'610.8
2017-Sep-10 04:58N 38°52' E 003°26'610.8
2017-Sep-10 04:24N 38°52' E 003°34'43210.6
2017-Sep-08 11:31N 38°28' E 012°47'010.2
2017-Sep-08 11:30N 38°28' E 012°47'510.2
2017-Sep-08 10:59N 38°28' E 012°54'610.5
2017-Sep-08 10:28N 38°27' E 013°01'510.8
2017-Sep-08 10:01N 38°27' E 013°07'611.0
2017-Sep-08 09:30N 38°27' E 013°14'611.1
2017-Sep-08 09:01N 38°26' E 013°21'611.1
2017-Sep-08 08:31N 38°25' E 013°28'611.3
2017-Sep-08 08:01N 38°25' E 013°35'611.4
2017-Sep-08 07:30N 38°24' E 013°43'5611.6
2017-Sep-08 02:38N 38°19' E 014°54'111.6
2017-Sep-08 02:30N 38°19' E 014°56'611.7
2017-Sep-08 02:00N 38°19' E 015°04'612.0
2017-Sep-08 01:30N 38°20' E 015°11'611.7
2017-Sep-08 01:01N 38°20' E 015°19'611.4
2017-Sep-08 00:30N 38°20' E 015°26'611.0
2017-Sep-08 00:00N 38°20' E 015°33'610.4
2017-Sep-07 23:28N 38°20' E 015°40'4 8.3
2017-Sep-07 22:57N 38°16' E 015°41'3 7.9
2017-Sep-07 22:31N 38°14' E 015°37'611.1
2017-Sep-07 22:01N 38°09' E 015°37'611.5
2017-Sep-07 21:31N 38°03' E 015°35'910.9
2017-Sep-07 20:40N 37°54' E 015°31'410.8
2017-Sep-07 20:19N 37°51' E 015°29'  
Track history (hours):
 
Tides and Currents Weather Stations Pressure Air Temp Water Temp Dewpoint Dewpoint Depression Visibility Wind Speed Wind Dir Waves Ship Positions

Sam Simon

Last reported at 2017-Sep-13 02:54 UTC. Time now 2017-Sep-23 00:36 UTC.
Position N 34°46' W 007°35'.
Warning: this ship's position is 9 days out of date.

; draft 4.6 m.

Type: Ship. MMSI: 244810415.

Date/timePositionNaut miles runAvg speedWind from/ knotsBaromVisibWave heightAir tempDewpointWater temp
2017-Sep-13 02:54N 34°46' W 007°35'511.2
2017-Sep-13 02:26N 34°49' W 007°31'1911.1
2017-Sep-13 00:43N 35°03' W 007°14'311.0
2017-Sep-13 00:29N 35°04' W 007°12'611.4
2017-Sep-12 23:58N 35°07' W 007°05'9311.1
2017-Sep-12 15:38N 35°59' W 005°32'3 9.8
2017-Sep-12 15:20N 36°00' W 005°28'3 9.1
2017-Sep-12 15:01N 36°01' W 005°25'5 9.2
2017-Sep-12 14:30N 36°06' W 005°23'3 0.6
2017-Sep-12 09:27N 36°09' W 005°22'0 0.0
2017-Sep-12 05:38N 36°09' W 005°22'0 0.0
2017-Sep-12 05:29N 36°09' W 005°22'0 0.0
2017-Sep-12 05:01N 36°09' W 005°22'0 0.0
2017-Sep-12 04:30N 36°09' W 005°22'0 0.0
2017-Sep-12 03:58N 36°09' W 005°22'0 0.0
2017-Sep-12 03:22N 36°09' W 005°22'0 0.0
2017-Sep-12 02:06N 36°09' W 005°22'0 0.0
2017-Sep-12 01:58N 36°09' W 005°22'0 0.0
2017-Sep-12 01:29N 36°09' W 005°22'3 3.4
2017-Sep-12 00:41N 36°06' W 005°22'1 4.9
2017-Sep-12 00:29N 36°05' W 005°21'2 4.6
2017-Sep-12 00:01N 36°06' W 005°18'4 7.7
2017-Sep-11 23:30N 36°08' W 005°14'612.3
2017-Sep-11 23:01N 36°10' W 005°07'812.1
2017-Sep-11 22:20N 36°14' W 004°58'21210.3
2017-Sep-11 01:50N 37°06' W 000°42'18510.8
2017-Sep-10 08:40N 38°38' E 002°41'210.5
2017-Sep-10 08:28N 38°39' E 002°43'510.8
2017-Sep-10 08:00N 38°41' E 002°49'510.7
2017-Sep-10 07:30N 38°44' E 002°55'510.6
2017-Sep-10 07:00N 38°46' E 003°01'610.7
2017-Sep-10 06:29N 38°49' E 003°07'510.6
2017-Sep-10 06:00N 38°51' E 003°13'510.2
2017-Sep-10 05:30N 38°52' E 003°19'610.8
2017-Sep-10 04:58N 38°52' E 003°26'610.8
2017-Sep-10 04:24N 38°52' E 003°34'43210.6
2017-Sep-08 11:31N 38°28' E 012°47'010.2
2017-Sep-08 11:30N 38°28' E 012°47'510.2
2017-Sep-08 10:59N 38°28' E 012°54'610.5
2017-Sep-08 10:28N 38°27' E 013°01'510.8
2017-Sep-08 10:01N 38°27' E 013°07'611.0
2017-Sep-08 09:30N 38°27' E 013°14'611.1
2017-Sep-08 09:01N 38°26' E 013°21'611.1
2017-Sep-08 08:31N 38°25' E 013°28'611.3
2017-Sep-08 08:01N 38°25' E 013°35'611.4
2017-Sep-08 07:30N 38°24' E 013°43'5611.6
2017-Sep-08 02:38N 38°19' E 014°54'111.6
2017-Sep-08 02:30N 38°19' E 014°56'611.7
2017-Sep-08 02:00N 38°19' E 015°04'612.0
2017-Sep-08 01:30N 38°20' E 015°11'611.7
2017-Sep-08 01:01N 38°20' E 015°19'611.4
2017-Sep-08 00:30N 38°20' E 015°26'611.0
2017-Sep-08 00:00N 38°20' E 015°33'610.4
2017-Sep-07 23:28N 38°20' E 015°40'4 8.3
2017-Sep-07 22:57N 38°16' E 015°41'3 7.9
2017-Sep-07 22:31N 38°14' E 015°37'611.1
2017-Sep-07 22:01N 38°09' E 015°37'611.5
2017-Sep-07 21:31N 38°03' E 015°35'910.9
2017-Sep-07 20:40N 37°54' E 015°31'410.8
2017-Sep-07 20:19N 37°51' E 015°29'  

Dump ship's entire track history